createdAt,value
2019-01-14T00:00:19.602Z,92.83
2019-01-14T00:02:48.218Z,91.80
2019-01-14T00:05:16.789Z,92.30
2019-01-14T00:07:45.355Z,89.43
2019-01-14T00:10:13.646Z,85.73
2019-01-14T00:12:41.921Z,86.73
2019-01-14T00:15:10.653Z,82.63
2019-01-14T00:17:39.011Z,82.67
2019-01-14T00:20:09.654Z,82.20
2019-01-14T00:22:38.009Z,82.77
2019-01-14T00:25:06.320Z,81.40
2019-01-14T00:27:34.606Z,79.93
2019-01-14T00:30:04.082Z,80.97
2019-01-14T00:32:33.299Z,61.20
2019-01-14T00:35:01.909Z,62.90
2019-01-14T00:37:30.450Z,65.33
2019-01-14T00:39:58.986Z,79.73
2019-01-14T00:42:27.539Z,86.83
2019-01-14T00:44:56.074Z,89.43
2019-01-14T00:47:24.378Z,112.23
2019-01-14T00:49:52.658Z,133.57
2019-01-14T00:52:20.959Z,125.57
2019-01-14T00:54:49.270Z,116.60
2019-01-14T00:57:17.802Z,123.90
2019-01-14T00:59:46.346Z,120.17
2019-01-14T01:02:14.642Z,129.50
2019-01-14T01:04:42.930Z,153.30
2019-01-14T01:07:11.234Z,198.80
2019-01-14T01:09:39.551Z,220.67
2019-01-14T01:12:08.462Z,232.70
2019-01-14T01:14:36.745Z,219.67
2019-01-14T01:17:05.057Z,208.93
2019-01-14T01:19:33.578Z,205.40
2019-01-14T01:22:02.133Z,199.27
2019-01-14T01:24:30.663Z,191.07
2019-01-14T01:26:59.216Z,189.93
2019-01-14T01:29:27.750Z,187.90
2019-01-14T01:31:56.051Z,178.83
2019-01-14T01:34:24.334Z,176.40
2019-01-14T01:36:52.649Z,176.37
2019-01-14T01:39:20.933Z,173.27
2019-01-14T01:41:49.481Z,165.63
2019-01-14T01:44:17.783Z,165.40
2019-01-14T01:46:46.306Z,165.93
2019-01-14T01:49:14.624Z,153.60
2019-01-14T01:51:43.218Z,130.97
2019-01-14T01:54:11.748Z,121.80
2019-01-14T01:56:40.311Z,129.37
2019-01-14T01:59:08.603Z,124.47
2019-01-14T02:01:36.886Z,122.93
2019-01-14T02:04:05.197Z,115.33
2019-01-14T02:06:39.178Z,124.40
2019-01-14T02:09:06.540Z,109.33
2019-01-14T02:11:34.843Z,100.60
2019-01-14T02:14:03.446Z,102.50
2019-01-14T02:16:32.472Z,94.30
2019-01-14T02:19:00.771Z,95.83
2019-01-14T02:21:29.069Z,87.00
2019-01-14T02:23:57.589Z,84.97
2019-01-14T02:26:26.146Z,81.10
2019-01-14T02:28:54.679Z,82.27
2019-01-14T02:31:22.969Z,74.47
2019-01-14T02:33:51.548Z,73.53
2019-01-14T02:36:20.125Z,75.47
2019-01-14T02:38:48.692Z,77.27
2019-01-14T02:41:17.243Z,67.90
2019-01-14T02:43:45.542Z,66.57
2019-01-14T02:46:13.910Z,66.63
2019-01-14T02:48:42.210Z,68.67
2019-01-14T02:51:10.496Z,69.57
2019-01-14T02:53:39.044Z,64.97
2019-01-14T02:56:07.567Z,64.87
2019-01-14T02:58:35.868Z,63.87
2019-01-14T03:01:04.214Z,61.63
2019-01-14T03:03:32.515Z,63.80
2019-01-14T03:06:00.799Z,60.13
2019-01-14T03:08:29.103Z,58.47
2019-01-14T03:10:57.382Z,55.57
2019-01-14T03:13:25.683Z,54.10
2019-01-14T03:15:53.978Z,53.47
2019-01-14T03:18:22.505Z,52.53
2019-01-14T03:20:51.048Z,49.80
2019-01-14T03:23:19.330Z,51.13
2019-01-14T03:25:47.884Z,51.37
2019-01-14T03:28:16.178Z,48.63
2019-01-14T03:30:44.456Z,47.50
2019-01-14T03:33:12.757Z,47.47
2019-01-14T03:35:41.035Z,47.27
2019-01-14T03:38:09.338Z,45.53
2019-01-14T03:40:37.657Z,44.77
2019-01-14T03:43:05.930Z,44.23
2019-01-14T03:45:34.481Z,43.57
2019-01-14T03:48:02.779Z,44.07
2019-01-14T03:50:31.153Z,40.63
2019-01-14T03:52:59.458Z,39.90
2019-01-14T03:55:28.002Z,40.20
2019-01-14T03:57:56.283Z,39.53
2019-01-14T04:00:24.709Z,40.87
2019-01-14T04:02:53.023Z,40.73
2019-01-14T04:05:21.312Z,36.27
2019-01-14T04:07:49.836Z,40.43
2019-01-14T04:10:18.401Z,44.70
2019-01-14T04:12:46.691Z,47.33
2019-01-14T04:15:18.615Z,42.90
2019-01-14T04:17:47.149Z,40.90
2019-01-14T04:20:17.127Z,39.90
2019-01-14T04:22:45.658Z,40.03
2019-01-14T04:25:14.124Z,41.47
2019-01-14T04:27:42.403Z,39.57
2019-01-14T04:30:18.597Z,39.17
2019-01-14T04:32:47.135Z,38.20
2019-01-14T04:35:15.448Z,35.10
2019-01-14T04:37:43.726Z,36.60
2019-01-14T04:40:14.511Z,33.80
2019-01-14T04:42:42.807Z,34.33
2019-01-14T04:45:12.789Z,32.87
2019-01-14T04:47:41.068Z,34.23
2019-01-14T04:50:17.688Z,32.17
2019-01-14T04:52:46.215Z,31.37
2019-01-14T04:55:14.527Z,32.40
2019-01-14T04:57:43.045Z,30.00
2019-01-14T05:00:19.678Z,31.60
2019-01-14T05:02:47.948Z,30.90
2019-01-14T05:05:16.485Z,30.33
2019-01-14T05:07:44.793Z,29.23
2019-01-14T05:10:15.550Z,27.93
2019-01-14T05:12:44.141Z,26.37
2019-01-14T05:15:12.707Z,29.93
2019-01-14T05:17:40.985Z,26.97
2019-01-14T05:20:12.774Z,26.63
2019-01-14T05:22:41.074Z,27.27
2019-01-14T05:25:09.605Z,25.37
2019-01-14T05:27:37.911Z,24.80
2019-01-14T05:30:09.581Z,24.67
2019-01-14T05:32:37.884Z,25.00
2019-01-14T05:35:07.370Z,25.50
2019-01-14T05:37:37.506Z,22.57
2019-01-14T05:40:09.162Z,24.00
2019-01-14T05:42:37.452Z,22.63
2019-01-14T05:45:07.537Z,23.13
2019-01-14T05:47:36.131Z,22.27
2019-01-14T05:50:08.113Z,22.40
2019-01-14T05:52:36.655Z,20.93
2019-01-14T05:55:06.551Z,22.03
2019-01-14T05:57:35.114Z,19.50
2019-01-14T06:00:18.888Z,19.93
2019-01-14T06:02:47.165Z,18.43
2019-01-14T06:05:15.710Z,19.00
2019-01-14T06:07:44.974Z,18.60
2019-01-14T06:10:13.574Z,18.43
2019-01-14T06:12:41.872Z,17.93
2019-01-14T06:15:12.557Z,18.70
2019-01-14T06:17:40.929Z,17.10
2019-01-14T06:20:12.616Z,17.73
2019-01-14T06:22:41.155Z,17.20
2019-01-14T06:25:11.489Z,17.80
2019-01-14T06:27:40.089Z,16.37
2019-01-14T06:30:14.816Z,16.30
2019-01-14T06:32:43.358Z,16.13
2019-01-14T06:35:11.985Z,15.43
2019-01-14T06:37:40.280Z,16.40
2019-01-14T06:40:12.108Z,15.10
2019-01-14T06:42:40.402Z,14.17
2019-01-14T06:45:09.222Z,15.10
2019-01-14T06:47:37.529Z,14.97
2019-01-14T06:50:09.205Z,14.40
2019-01-14T06:52:37.736Z,14.40
2019-01-14T06:55:06.321Z,13.37
2019-01-14T06:57:34.923Z,13.20
2019-01-14T07:00:05.105Z,14.00
2019-01-14T07:02:33.653Z,12.67
2019-01-14T07:05:01.924Z,13.60
2019-01-14T07:07:30.478Z,12.77
2019-01-14T07:09:58.771Z,11.70
2019-01-14T07:12:27.063Z,12.87
2019-01-14T07:14:55.343Z,11.60
2019-01-14T07:17:23.641Z,12.57
2019-01-14T07:19:51.942Z,11.00
2019-01-14T07:22:20.486Z,11.63
2019-01-14T07:24:48.775Z,11.20
2019-01-14T07:27:17.055Z,11.27
2019-01-14T07:29:45.602Z,11.30
2019-01-14T07:32:14.138Z,11.43
2019-01-14T07:34:42.675Z,10.63
2019-01-14T07:37:11.206Z,10.70
2019-01-14T07:39:39.501Z,10.87
2019-01-14T07:42:07.801Z,11.13
2019-01-14T07:44:36.076Z,11.10
2019-01-14T07:47:04.374Z,9.87
2019-01-14T07:49:32.660Z,10.33
2019-01-14T07:52:01.046Z,10.00
2019-01-14T07:54:29.566Z,9.47
2019-01-14T07:56:57.918Z,9.77
2019-01-14T07:59:26.206Z,9.80
2019-01-14T08:01:54.737Z,9.13
2019-01-14T08:04:23.023Z,9.53
2019-01-14T08:06:51.578Z,9.37
2019-01-14T08:09:19.849Z,9.10
2019-01-14T08:11:48.377Z,9.70
2019-01-14T08:14:16.664Z,8.57
2019-01-14T08:16:45.198Z,8.63
2019-01-14T08:19:13.487Z,8.40
2019-01-14T08:21:42.015Z,8.70
2019-01-14T08:24:10.306Z,8.13
2019-01-14T08:26:38.581Z,8.30
2019-01-14T08:29:06.871Z,7.80
2019-01-14T08:31:35.403Z,7.70
2019-01-14T08:34:04.022Z,8.27
2019-01-14T08:36:32.289Z,7.97
2019-01-14T08:39:00.585Z,7.67
2019-01-14T08:41:30.523Z,7.93
2019-01-14T08:44:00.688Z,8.20
2019-01-14T08:46:29.911Z,7.30
2019-01-14T08:48:58.445Z,7.43
2019-01-14T08:51:26.962Z,7.60
2019-01-14T08:53:55.508Z,7.03
2019-01-14T08:56:23.877Z,7.50
2019-01-14T08:58:52.182Z,11.90
2019-01-14T09:01:20.742Z,17.07
2019-01-14T09:03:49.279Z,36.97
2019-01-14T09:06:17.814Z,40.80
2019-01-14T09:08:46.363Z,36.57
2019-01-14T09:11:14.638Z,35.40
2019-01-14T09:13:43.188Z,38.53
2019-01-14T09:16:11.483Z,47.93
2019-01-14T09:18:39.779Z,45.67
2019-01-14T09:21:08.067Z,65.50
2019-01-14T09:23:36.598Z,67.27
2019-01-14T09:26:05.146Z,63.37
2019-01-14T09:28:33.443Z,60.77
2019-01-14T09:31:02.007Z,51.97
2019-01-14T09:33:30.535Z,50.97
2019-01-14T09:35:58.830Z,51.10
2019-01-14T09:38:27.110Z,54.87
2019-01-14T09:40:55.410Z,51.20
2019-01-14T09:43:23.691Z,61.50
2019-01-14T09:45:52.238Z,96.77
2019-01-14T09:48:20.768Z,87.03
2019-01-14T09:50:49.329Z,73.90
2019-01-14T09:53:17.613Z,82.23
2019-01-14T09:55:45.910Z,82.03
2019-01-14T09:58:14.443Z,77.80
2019-01-14T10:00:42.993Z,75.93
2019-01-14T10:03:11.297Z,72.57
2019-01-14T10:05:39.822Z,71.43
2019-01-14T10:08:08.375Z,69.93
2019-01-14T10:10:36.901Z,67.23
2019-01-14T10:13:05.201Z,67.83
2019-01-14T10:15:33.494Z,64.43
2019-01-14T10:18:03.329Z,63.90
2019-01-14T10:20:31.690Z,63.77
2019-01-14T10:22:59.960Z,62.50
2019-01-14T10:25:28.263Z,62.10
2019-01-14T10:27:56.542Z,60.23
2019-01-14T10:30:24.906Z,58.53
2019-01-14T10:32:53.204Z,58.97
2019-01-14T10:35:21.487Z,57.93
2019-01-14T10:37:49.780Z,54.60
2019-01-14T10:40:18.102Z,56.43
2019-01-14T10:42:46.779Z,65.53
2019-01-14T10:45:19.882Z,85.97
2019-01-14T10:47:48.444Z,72.87
2019-01-14T10:50:16.990Z,87.10
2019-01-14T10:52:45.291Z,80.50
2019-01-14T10:55:13.827Z,92.77
2019-01-14T10:57:42.454Z,84.20
2019-01-14T11:00:14.362Z,82.43
2019-01-14T11:02:47.984Z,80.70
2019-01-14T11:05:18.115Z,80.73
2019-01-14T11:07:46.420Z,79.83
2019-01-14T11:10:14.697Z,78.50
2019-01-14T11:12:43.258Z,76.97
2019-01-14T11:15:19.304Z,74.77
2019-01-14T11:17:47.603Z,75.73
2019-01-14T11:20:29.660Z,77.10
2019-01-14T11:22:58.406Z,76.67
2019-01-14T11:25:26.758Z,77.60
2019-01-14T11:27:55.041Z,79.43
2019-01-14T11:30:28.426Z,86.00
2019-01-14T11:32:56.994Z,98.63
2019-01-14T11:35:25.522Z,90.87
2019-01-14T11:37:53.825Z,94.73
2019-01-14T11:40:27.591Z,92.63
2019-01-14T11:42:55.879Z,91.73
2019-01-14T11:45:24.422Z,87.57
2019-01-14T11:47:52.995Z,89.10
2019-01-14T11:50:21.277Z,96.07
2019-01-14T11:52:49.593Z,94.67
2019-01-14T11:55:18.126Z,101.93
2019-01-14T11:57:46.427Z,107.97
2019-01-14T12:00:23.298Z,106.23
2019-01-14T12:02:51.580Z,107.60
2019-01-14T12:05:19.873Z,109.00
2019-01-14T12:07:48.414Z,109.43
2019-01-14T12:10:16.966Z,105.33
2019-01-14T12:12:45.582Z,104.43
2019-01-14T12:15:19.601Z,102.70
2019-01-14T12:17:47.885Z,91.77
2019-01-14T12:20:16.436Z,90.50
2019-01-14T12:22:44.979Z,92.20
2019-01-14T12:25:13.262Z,97.57
2019-01-14T12:27:41.826Z,96.03
2019-01-14T12:30:18.849Z,94.73
2019-01-14T12:32:47.395Z,95.17
2019-01-14T12:35:15.931Z,94.23
2019-01-14T12:37:44.238Z,91.53
2019-01-14T12:40:12.853Z,91.63
2019-01-14T12:42:41.434Z,88.87
2019-01-14T12:45:12.712Z,92.00
2019-01-14T12:47:41.022Z,94.83
2019-01-14T12:50:12.135Z,94.37
2019-01-14T12:52:40.463Z,95.73
2019-01-14T12:55:10.950Z,91.17
2019-01-14T12:57:40.416Z,87.63
2019-01-14T13:00:11.983Z,92.27
2019-01-14T13:02:40.270Z,93.93
2019-01-14T13:05:08.940Z,89.40
2019-01-14T13:07:37.274Z,85.80
2019-01-14T13:10:08.413Z,84.87
2019-01-14T13:12:36.976Z,78.17
2019-01-14T13:15:11.385Z,85.37
2019-01-14T13:17:39.918Z,87.63
2019-01-14T13:20:11.216Z,93.33
2019-01-14T13:22:39.497Z,90.90
2019-01-14T13:25:08.416Z,88.17
2019-01-14T13:27:36.979Z,89.03
2019-01-14T13:30:11.334Z,87.03
2019-01-14T13:32:39.661Z,84.03
2019-01-14T13:35:08.075Z,81.10
2019-01-14T13:37:36.387Z,75.57
2019-01-14T13:40:08.314Z,73.53
2019-01-14T13:42:38.818Z,75.37
2019-01-14T13:45:18.902Z,74.73
2019-01-14T13:47:47.524Z,77.53
2019-01-14T13:50:20.683Z,77.67
2019-01-14T13:52:49.241Z,78.90
2019-01-14T13:55:19.157Z,77.57
2019-01-14T13:57:49.506Z,76.23
2019-01-14T14:00:19.406Z,79.10
2019-01-14T14:02:47.979Z,81.33
2019-01-14T14:05:16.515Z,81.10
2019-01-14T14:07:46.088Z,79.90
2019-01-14T14:10:25.677Z,77.90
2019-01-14T14:12:55.606Z,78.73
2019-01-14T14:15:24.151Z,98.90
2019-01-14T14:17:52.511Z,108.77
2019-01-14T14:20:20.824Z,105.27
2019-01-14T14:22:49.116Z,102.23
2019-01-14T14:25:19.474Z,103.20
2019-01-14T14:27:47.995Z,102.07
2019-01-14T14:30:25.091Z,101.23
2019-01-14T14:32:53.627Z,95.10
2019-01-14T14:35:22.189Z,96.53
2019-01-14T14:37:50.732Z,95.90
2019-01-14T14:40:19.274Z,91.23
2019-01-14T14:42:48.190Z,91.63
2019-01-14T14:45:16.734Z,94.17
2019-01-14T14:47:45.287Z,96.63
2019-01-14T14:50:20.330Z,104.97
2019-01-14T14:52:48.626Z,117.43
2019-01-14T14:55:16.941Z,140.70
2019-01-14T14:57:45.483Z,130.80
2019-01-14T15:00:19.966Z,141.03
2019-01-14T15:02:48.265Z,126.67
2019-01-14T15:05:18.258Z,120.03
2019-01-14T15:07:46.815Z,119.07
2019-01-14T15:10:19.639Z,115.07
2019-01-14T15:12:50.151Z,113.97
2019-01-14T15:15:20.133Z,112.23
2019-01-14T15:17:48.448Z,108.50
2019-01-14T15:20:18.479Z,105.87
2019-01-14T15:22:47.029Z,107.63
2019-01-14T15:25:15.337Z,104.97
2019-01-14T15:27:43.882Z,110.60
2019-01-14T15:30:18.473Z,104.10
2019-01-14T15:32:47.011Z,131.07
2019-01-14T15:35:15.321Z,135.93
2019-01-14T15:37:43.615Z,138.07
2019-01-14T15:40:14.543Z,138.60
2019-01-14T15:42:44.707Z,128.73
2019-01-14T15:45:15.139Z,128.77
2019-01-14T15:47:43.706Z,124.17
2019-01-14T15:50:13.914Z,118.63
2019-01-14T15:52:42.281Z,114.13
2019-01-14T15:55:16.329Z,111.93
2019-01-14T15:57:44.875Z,110.90
2019-01-14T16:00:15.671Z,108.17
2019-01-14T16:02:44.229Z,105.50
2019-01-14T16:05:13.123Z,104.40
2019-01-14T16:07:41.697Z,104.33
2019-01-14T16:10:12.928Z,125.33
2019-01-14T16:12:41.470Z,166.37
2019-01-14T16:15:10.144Z,159.07
2019-01-14T16:17:43.314Z,140.47
2019-01-14T16:20:14.447Z,137.27
2019-01-14T16:22:44.062Z,143.63
2019-01-14T16:25:12.314Z,144.50
2019-01-14T16:27:42.131Z,139.57
2019-01-14T16:30:15.669Z,127.20
2019-01-14T16:32:45.858Z,127.90
2019-01-14T16:35:14.394Z,129.33
2019-01-14T16:37:42.698Z,124.87
2019-01-14T16:40:17.593Z,122.37
2019-01-14T16:42:41.605Z,119.80
2019-01-14T16:45:15.682Z,115.87
2019-01-14T16:47:47.011Z,117.50
2019-01-14T16:50:16.117Z,114.03
2019-01-14T16:52:44.857Z,111.07
2019-01-14T16:55:15.251Z,109.27
2019-01-14T16:57:43.542Z,112.23
2019-01-14T17:00:18.945Z,120.40
2019-01-14T17:02:47.314Z,136.80
2019-01-14T17:05:16.429Z,118.43
2019-01-14T17:07:44.975Z,112.93
2019-01-14T17:10:14.799Z,108.97
2019-01-14T17:12:43.364Z,110.20
2019-01-14T17:15:11.729Z,106.97
2019-01-14T17:17:40.259Z,101.40
2019-01-14T17:20:17.099Z,104.00
2019-01-14T17:22:45.663Z,98.40
2019-01-14T17:25:14.204Z,118.03
2019-01-14T17:27:42.560Z,109.27
2019-01-14T17:30:13.944Z,107.20
2019-01-14T17:32:42.485Z,104.10
2019-01-14T17:35:10.813Z,101.73
2019-01-14T17:37:39.094Z,97.47
2019-01-14T17:40:15.552Z,97.87
2019-01-14T17:42:44.008Z,93.83
2019-01-14T17:45:12.550Z,93.77
2019-01-14T17:47:41.075Z,92.37
2019-01-14T17:50:11.825Z,92.57
2019-01-14T17:52:40.373Z,91.20
2019-01-14T17:55:08.992Z,86.50
2019-01-14T17:57:37.290Z,90.00
2019-01-14T18:00:12.143Z,94.63
2019-01-14T18:02:40.428Z,144.17
2019-01-14T18:05:08.718Z,149.70
2019-01-14T18:07:37.314Z,141.90
2019-01-14T18:10:11.745Z,125.20
2019-01-14T18:12:40.282Z,121.13
2019-01-14T18:15:08.831Z,113.73
2019-01-14T18:17:37.410Z,117.67
2019-01-14T18:20:11.629Z,114.73
2019-01-14T18:22:40.190Z,141.97
2019-01-14T18:25:08.939Z,154.77
2019-01-14T18:27:37.247Z,161.40
2019-01-14T18:30:08.813Z,154.70
2019-01-14T18:32:37.363Z,155.50
2019-01-14T18:35:06.440Z,148.17
2019-01-14T18:37:34.986Z,137.37
2019-01-14T18:40:05.024Z,126.43
2019-01-14T18:42:33.324Z,125.77
2019-01-14T18:45:01.951Z,122.63
2019-01-14T18:47:30.494Z,116.37
2019-01-14T18:49:59.068Z,118.63
2019-01-14T18:52:27.604Z,115.97
2019-01-14T18:54:56.161Z,111.50
2019-01-14T18:57:24.537Z,116.20
2019-01-14T18:59:53.105Z,125.40
2019-01-14T19:02:21.704Z,118.10
2019-01-14T19:04:50.010Z,115.57
2019-01-14T19:07:18.559Z,115.43
2019-01-14T19:09:46.909Z,116.00
2019-01-14T19:12:15.204Z,111.80
2019-01-14T19:14:43.510Z,128.17
2019-01-14T19:17:11.811Z,143.10
2019-01-14T19:19:40.366Z,135.23
2019-01-14T19:22:08.922Z,143.37
2019-01-14T19:24:37.467Z,140.97
2019-01-14T19:27:06.031Z,138.23
2019-01-14T19:29:34.325Z,128.10
2019-01-14T19:32:02.664Z,149.47
2019-01-14T19:34:30.970Z,138.47
2019-01-14T19:36:59.538Z,152.03
2019-01-14T19:39:28.150Z,157.67
2019-01-14T19:41:56.457Z,143.13
2019-01-14T19:44:24.742Z,137.20
2019-01-14T19:46:53.038Z,137.30
2019-01-14T19:49:21.604Z,130.63
2019-01-14T19:51:50.165Z,126.60
2019-01-14T19:54:18.738Z,124.03
2019-01-14T19:56:47.027Z,121.70
2019-01-14T19:59:15.587Z,143.20
2019-01-14T20:01:44.149Z,129.17
2019-01-14T20:04:12.467Z,124.70
2019-01-14T20:06:40.884Z,125.10
2019-01-14T20:09:09.648Z,123.50
2019-01-14T20:11:38.011Z,120.57
2019-01-14T20:14:06.634Z,121.87
2019-01-14T20:16:35.184Z,119.23
2019-01-14T20:19:03.731Z,114.73
2019-01-14T20:21:32.031Z,118.37
2019-01-14T20:24:00.597Z,116.10
2019-01-14T20:26:29.184Z,113.50
2019-01-14T20:28:57.719Z,113.63
2019-01-14T20:31:26.036Z,111.47
2019-01-14T20:33:54.594Z,110.43
2019-01-14T20:36:23.160Z,108.50
2019-01-14T20:38:51.446Z,103.77
2019-01-14T20:41:19.758Z,103.67
2019-01-14T20:43:48.317Z,100.93
2019-01-14T20:46:16.879Z,102.07
2019-01-14T20:48:45.430Z,102.80
2019-01-14T20:51:13.718Z,109.80
2019-01-14T20:53:42.027Z,104.00
2019-01-14T20:56:10.560Z,108.90
2019-01-14T20:58:38.877Z,101.37
2019-01-14T21:01:07.438Z,100.03
2019-01-14T21:03:36.143Z,98.97
2019-01-14T21:06:04.497Z,97.00
2019-01-14T21:08:34.654Z,97.33
2019-01-14T21:11:03.040Z,94.30
2019-01-14T21:13:31.588Z,96.40
2019-01-14T21:16:02.963Z,94.73
2019-01-14T21:18:30.464Z,177.03
2019-01-14T21:20:59.098Z,161.10
2019-01-14T21:23:27.417Z,170.17
2019-01-14T21:25:55.947Z,167.30
2019-01-14T21:28:24.503Z,140.27
2019-01-14T21:30:52.799Z,137.73
2019-01-14T21:33:21.358Z,126.33
2019-01-14T21:35:49.922Z,122.73
2019-01-14T21:38:18.213Z,178.07
2019-01-14T21:40:46.779Z,209.33
2019-01-14T21:43:15.309Z,173.73
2019-01-14T21:45:43.619Z,156.63
2019-01-14T21:48:17.210Z,145.93
2019-01-14T21:50:42.449Z,147.47
2019-01-14T21:53:10.983Z,148.00
2019-01-14T21:55:39.541Z,137.73
2019-01-14T21:58:08.072Z,142.60
2019-01-14T22:00:38.109Z,141.87
2019-01-14T22:03:08.291Z,145.63
2019-01-14T22:05:36.593Z,140.73
2019-01-14T22:08:04.919Z,135.20
2019-01-14T22:10:33.502Z,133.33
2019-01-14T22:13:02.063Z,131.10
2019-01-14T22:15:30.607Z,128.20
2019-01-14T22:17:58.915Z,126.07
2019-01-14T22:20:27.370Z,128.23
2019-01-14T22:22:55.914Z,123.20
2019-01-14T22:25:24.214Z,128.33
2019-01-14T22:27:55.482Z,123.53
2019-01-14T22:30:26.326Z,119.17
2019-01-14T22:32:54.911Z,116.40
2019-01-14T22:35:23.439Z,114.53
2019-01-14T22:37:51.974Z,114.60
2019-01-14T22:40:20.602Z,108.80
2019-01-14T22:42:50.790Z,117.60
2019-01-14T22:45:19.346Z,123.23
2019-01-14T22:47:47.643Z,141.80
2019-01-14T22:50:19.230Z,143.27
2019-01-14T22:52:47.538Z,146.43
2019-01-14T22:55:16.123Z,170.17
2019-01-14T22:57:44.416Z,151.67
2019-01-14T23:00:38.572Z,182.37
2019-01-14T23:03:07.295Z,168.97
2019-01-14T23:05:35.574Z,157.47
2019-01-14T23:08:03.890Z,152.73
2019-01-14T23:10:32.532Z,146.93
2019-01-14T23:13:01.328Z,144.30
2019-01-14T23:15:29.939Z,143.80
2019-01-14T23:17:58.679Z,144.90
2019-01-14T23:20:27.309Z,139.40
2019-01-14T23:22:57.558Z,142.57
2019-01-14T23:25:25.926Z,154.43
2019-01-14T23:27:54.400Z,151.40
2019-01-14T23:30:22.734Z,148.63
2019-01-14T23:32:51.046Z,142.37
2019-01-14T23:35:19.332Z,141.53
2019-01-14T23:37:47.630Z,141.90
2019-01-14T23:40:15.915Z,133.83
2019-01-14T23:42:44.230Z,137.93
2019-01-14T23:45:13.162Z,138.43
2019-01-14T23:47:41.776Z,131.37
2019-01-14T23:50:10.739Z,125.70
2019-01-14T23:52:39.049Z,146.90
2019-01-14T23:55:07.651Z,150.37
2019-01-14T23:57:36.196Z,155.13
